MAPA DE AEROPUERTO

INFORMACIÓN METAR y TAF

METAR FOR LEVT
ADDS - METARS form results

(0419 UTC 20 September 2021)
Data provider http://aviationweather.gov/metar/data/
 
METAR text: LEVT 200400Z 28003KT 240V320 9999 FEW018 SCT026 13/11 Q1024
Conditions at: LEVT (VITORIA , ES) observed 0400 UTC 20 September 2021
Temperature: 13.0°C (55°F)
Dewpoint: 11.0°C (52°F) [RH = 88%]
Pressure (altimeter): 30.24 inches Hg (1024.0 mb)
Winds: from the W (280 degrees) at 3 MPH (3 knots; 1.5 m/s)
Visibility: 6 or more miles (10+ km)
Ceiling: at least 12,000 feet AGL
Clouds: few clouds at 1800 feet AGL
scattered clouds at 2600 feet AGL
Weather: no significant weather observed at this time

METAR text: LEVT 200330Z 29004KT 9999 FEW018 SCT026 14/11 Q1024
Conditions at: LEVT (VITORIA , ES) observed 0330 UTC 20 September 2021
Temperature: 14.0°C (57°F)
Dewpoint: 11.0°C (52°F) [RH = 82%]
Pressure (altimeter): 30.24 inches Hg (1024.0 mb)
Winds: from the WNW (290 degrees) at 5 MPH (4 knots; 2.1 m/s)
Visibility: 6 or more miles (10+ km)
Ceiling: at least 12,000 feet AGL
Clouds: few clouds at 1800 feet AGL
scattered clouds at 2600 feet AGL
Weather: no significant weather observed at this time

Forecast for: LEVT (VITORIA , ES)
Text: TAF LEVT 192300Z 2000/2024 02009KT 9999 FEW030 TX16/2012Z TN07/2006Z
Forecast period: 0000 UTC 20 September 2021 to 0000 UTC 21 September 2021
Forecast type: FROM: standard forecast or significant change
Winds: from the NNE (20 degrees) at 10 MPH (9 knots; 4.6 m/s)
Visibility: 6 or more miles (10+ km)
Ceiling: at least 12,000 feet AGL
Clouds: few clouds at 3000 feet AGL
Weather: no significant weather forecast for this period
Text: TEMPO 2000/2018 3000 RA SHRA BKN010 SCT030TCU
Forecast period: 0000 to 1800 UTC 20 September 2021
Forecast type: TEMPORARY: The following changes expected for less than half the time period
Visibility: 1.86 miles (2.99 km)
Ceiling: 1000 feet AGL
Clouds: broken clouds at 1000 feet AGL
scattered clouds at 3000 feet AGL
Weather: RA SHRA  (moderate rain, rain showers)
Text: PROB30
Forecast period: 0000 to 0600 UTC 20 September 2021
Forecast type: TEMPORARY: The following changes expected for less than half the time period
Visibility: 0.50 miles (0.80 km)
Ceiling: 500 feet AGL
Clouds: broken clouds at 500 feet AGL
broken clouds at 1000 feet AGL
scattered clouds at 3000 feet AGL
Weather: RA SHRA BCFG  (moderate rain, rain showers, patches of fog)
Text: TEMPO 2000/2006 0800 RA SHRA BCFG BKN005 BKN010 SCT030TCU
Forecast period: 0000 to 0600 UTC 20 September 2021
Forecast type: TEMPORARY: The following changes expected for less than half the time period
Visibility: 0.93 miles (1.50 km)
Ceiling: 500 feet AGL
Clouds: broken clouds at 500 feet AGL
scattered clouds at 2500 feet AGL
Weather: TSRA  (rain associated with thunderstorm(s))